sensor_id;sensor_type;location;lat;lon;timestamp;pressure;altitude;pressure_sealevel;temperature;humidity
7264;BME280;3673;52.480;13.348;2023-11-22T00:01:10;102113.63;;;6.84;49.29
7264;BME280;3673;52.480;13.348;2023-11-22T00:03:37;102119.19;;;6.93;48.70
7264;BME280;3673;52.480;13.348;2023-11-22T00:06:05;102114.53;;;6.85;48.63
7264;BME280;3673;52.480;13.348;2023-11-22T00:08:33;102127.13;;;6.98;48.13
7264;BME280;3673;52.480;13.348;2023-11-22T00:11:01;102131.19;;;6.90;48.51
7264;BME280;3673;52.480;13.348;2023-11-22T00:13:28;102138.50;;;7.00;48.18
7264;BME280;3673;52.480;13.348;2023-11-22T00:15:54;102137.59;;;6.99;48.69
7264;BME280;3673;52.480;13.348;2023-11-22T00:18:22;102148.91;;;7.00;48.86
7264;BME280;3673;52.480;13.348;2023-11-22T00:20:50;102151.28;;;6.94;48.63
7264;BME280;3673;52.480;13.348;2023-11-22T00:23:16;102164.22;;;7.16;48.44
7264;BME280;3673;52.480;13.348;2023-11-22T00:25:43;102167.72;;;6.93;48.97
7264;BME280;3673;52.480;13.348;2023-11-22T00:28:11;102173.84;;;6.95;49.17
7264;BME280;3673;52.480;13.348;2023-11-22T00:30:38;102173.56;;;7.11;48.84
7264;BME280;3673;52.480;13.348;2023-11-22T00:33:05;102175.94;;;7.27;48.70
7264;BME280;3673;52.480;13.348;2023-11-22T00:35:31;102175.25;;;7.09;49.06
7264;BME280;3673;52.480;13.348;2023-11-22T00:37:59;102181.34;;;7.09;48.68
7264;BME280;3673;52.480;13.348;2023-11-22T00:40:25;102189.81;;;6.80;49.08
7264;BME280;3673;52.480;13.348;2023-11-22T00:42:52;102179.84;;;6.92;49.31
7264;BME280;3673;52.480;13.348;2023-11-22T00:45:20;102180.03;;;6.74;48.95
7264;BME280;3673;52.480;13.348;2023-11-22T00:47:47;102188.34;;;6.88;49.31
7264;BME280;3673;52.480;13.348;2023-11-22T00:50:14;102190.66;;;6.57;49.86
7264;BME280;3673;52.480;13.348;2023-11-22T00:52:45;102202.06;;;6.60;49.68
7264;BME280;3673;52.480;13.348;2023-11-22T00:55:12;102190.53;;;6.78;49.14
7264;BME280;3673;52.480;13.348;2023-11-22T00:57:39;102202.50;;;6.72;49.73
7264;BME280;3673;52.480;13.348;2023-11-22T01:00:07;102199.06;;;6.51;49.60
7264;BME280;3673;52.480;13.348;2023-11-22T01:02:38;102203.50;;;6.76;49.59
7264;BME280;3673;52.480;13.348;2023-11-22T01:05:06;102214.91;;;6.80;49.28
7264;BME280;3673;52.480;13.348;2023-11-22T01:07:36;102215.09;;;6.40;49.87
7264;BME280;3673;52.480;13.348;2023-11-22T01:10:04;102213.31;;;6.61;49.64
7264;BME280;3673;52.480;13.348;2023-11-22T01:12:31;102214.97;;;6.81;49.44
7264;BME280;3673;52.480;13.348;2023-11-22T01:14:57;102208.72;;;6.76;49.17
7264;BME280;3673;52.480;13.348;2023-11-22T01:17:24;102204.16;;;6.93;49.03
7264;BME280;3673;52.480;13.348;2023-11-22T01:19:52;102198.72;;;6.87;49.13
7264;BME280;3673;52.480;13.348;2023-11-22T01:22:19;102211.19;;;6.73;49.75
7264;BME280;3673;52.480;13.348;2023-11-22T01:24:46;102205.28;;;6.77;49.79
7264;BME280;3673;52.480;13.348;2023-11-22T01:27:13;102208.19;;;6.62;49.58
7264;BME280;3673;52.480;13.348;2023-11-22T01:29:39;102214.75;;;6.53;50.25
7264;BME280;3673;52.480;13.348;2023-11-22T01:32:07;102212.72;;;6.46;50.10
7264;BME280;3673;52.480;13.348;2023-11-22T01:34:34;102210.44;;;6.53;49.93
7264;BME280;3673;52.480;13.348;2023-11-22T01:37:03;102208.50;;;6.70;49.66
7264;BME280;3673;52.480;13.348;2023-11-22T01:39:31;102212.16;;;6.53;49.95
7264;BME280;3673;52.480;13.348;2023-11-22T01:41:58;102213.31;;;6.39;50.58
7264;BME280;3673;52.480;13.348;2023-11-22T01:44:24;102207.63;;;6.71;49.62
7264;BME280;3673;52.480;13.348;2023-11-22T01:46:52;102212.19;;;6.54;49.57
7264;BME280;3673;52.480;13.348;2023-11-22T01:49:19;102213.91;;;6.54;50.25
7264;BME280;3673;52.480;13.348;2023-11-22T01:51:46;102212.25;;;6.56;49.94
7264;BME280;3673;52.480;13.348;2023-11-22T01:54:14;102225.19;;;6.32;50.78
7264;BME280;3673;52.480;13.348;2023-11-22T01:56:42;102224.81;;;6.02;51.23
7264;BME280;3673;52.480;13.348;2023-11-22T01:59:09;102222.16;;;6.21;50.48
7264;BME280;3673;52.480;13.348;2023-11-22T02:01:36;102218.22;;;6.10;50.00
7264;BME280;3673;52.480;13.348;2023-11-22T02:04:03;102226.16;;;6.13;49.65
7264;BME280;3673;52.480;13.348;2023-11-22T02:06:29;102239.06;;;6.12;49.08
7264;BME280;3673;52.480;13.348;2023-11-22T02:08:57;102244.06;;;6.07;48.61
7264;BME280;3673;52.480;13.348;2023-11-22T02:11:25;102249.66;;;6.16;47.73
7264;BME280;3673;52.480;13.348;2023-11-22T02:13:53;102245.03;;;6.09;47.87
7264;BME280;3673;52.480;13.348;2023-11-22T02:16:19;102246.19;;;6.16;46.23
7264;BME280;3673;52.480;13.348;2023-11-22T02:18:47;102247.00;;;6.15;46.16
7264;BME280;3673;52.480;13.348;2023-11-22T02:21:16;102241.38;;;5.85;45.36
7264;BME280;3673;52.480;13.348;2023-11-22T02:23:45;102244.72;;;6.02;44.94
7264;BME280;3673;52.480;13.348;2023-11-22T02:26:12;102232.97;;;6.11;45.25
7264;BME280;3673;52.480;13.348;2023-11-22T02:28:38;102236.97;;;6.24;44.50
7264;BME280;3673;52.480;13.348;2023-11-22T02:31:05;102239.75;;;6.29;43.27
7264;BME280;3673;52.480;13.348;2023-11-22T02:33:32;102251.44;;;5.78;43.65
7264;BME280;3673;52.480;13.348;2023-11-22T02:35:59;102252.38;;;5.99;43.72
7264;BME280;3673;52.480;13.348;2023-11-22T02:38:27;102262.44;;;5.72;43.59
7264;BME280;3673;52.480;13.348;2023-11-22T02:40:55;102266.31;;;5.82;43.59
7264;BME280;3673;52.480;13.348;2023-11-22T02:43:23;102264.28;;;5.75;43.83
7264;BME280;3673;52.480;13.348;2023-11-22T02:45:50;102273.84;;;5.95;43.70
7264;BME280;3673;52.480;13.348;2023-11-22T02:48:17;102277.25;;;5.94;43.57
7264;BME280;3673;52.480;13.348;2023-11-22T02:50:44;102280.88;;;5.97;43.39
7264;BME280;3673;52.480;13.348;2023-11-22T02:53:11;102287.59;;;5.92;43.41
7264;BME280;3673;52.480;13.348;2023-11-22T02:55:38;102286.09;;;5.78;43.27
7264;BME280;3673;52.480;13.348;2023-11-22T02:58:06;102296.34;;;5.94;43.56
7264;BME280;3673;52.480;13.348;2023-11-22T03:00:33;102304.38;;;5.81;43.47
7264;BME280;3673;52.480;13.348;2023-11-22T03:03:00;102311.50;;;5.85;42.81
7264;BME280;3673;52.480;13.348;2023-11-22T03:05:29;102313.97;;;5.82;43.02
7264;BME280;3673;52.480;13.348;2023-11-22T03:07:55;102337.41;;;6.03;42.95
7264;BME280;3673;52.480;13.348;2023-11-22T03:10:42;102348.28;;;5.94;43.29
7264;BME280;3673;52.480;13.348;2023-11-22T03:13:10;102338.56;;;6.09;42.84
7264;BME280;3673;52.480;13.348;2023-11-22T03:15:38;102340.56;;;5.96;43.16
7264;BME280;3673;52.480;13.348;2023-11-22T03:18:05;102339.00;;;5.80;43.51
7264;BME280;3673;52.480;13.348;2023-11-22T03:20:34;102346.31;;;5.89;43.45
7264;BME280;3673;52.480;13.348;2023-11-22T03:23:02;102341.78;;;5.85;43.67
7264;BME280;3673;52.480;13.348;2023-11-22T03:25:29;102336.06;;;5.72;44.04
7264;BME280;3673;52.480;13.348;2023-11-22T03:27:55;102345.63;;;5.93;43.89
7264;BME280;3673;52.480;13.348;2023-11-22T03:30:23;102362.03;;;5.53;44.34
7264;BME280;3673;52.480;13.348;2023-11-22T03:32:50;102367.13;;;5.52;44.22
7264;BME280;3673;52.480;13.348;2023-11-22T03:35:17;102369.50;;;5.47;45.11
7264;BME280;3673;52.480;13.348;2023-11-22T03:37:44;102373.06;;;5.68;44.83
7264;BME280;3673;52.480;13.348;2023-11-22T03:40:11;102362.00;;;5.72;45.65
7264;BME280;3673;52.480;13.348;2023-11-22T03:42:39;102353.97;;;5.66;46.03
7264;BME280;3673;52.480;13.348;2023-11-22T03:45:07;102353.78;;;5.44;47.14
7264;BME280;3673;52.480;13.348;2023-11-22T03:47:35;102351.16;;;5.43;47.74
7264;BME280;3673;52.480;13.348;2023-11-22T03:50:05;102349.03;;;5.53;48.33
7264;BME280;3673;52.480;13.348;2023-11-22T03:52:32;102337.41;;;5.26;49.54
7264;BME280;3673;52.480;13.348;2023-11-22T03:54:58;102339.31;;;5.68;49.03
7264;BME280;3673;52.480;13.348;2023-11-22T03:57:25;102342.00;;;5.70;48.80
7264;BME280;3673;52.480;13.348;2023-11-22T03:59:52;102342.88;;;5.70;48.91
7264;BME280;3673;52.480;13.348;2023-11-22T04:02:19;102352.97;;;5.64;49.00
7264;BME280;3673;52.480;13.348;2023-11-22T04:04:47;102356.47;;;5.65;48.82
7264;BME280;3673;52.480;13.348;2023-11-22T04:07:13;102375.72;;;5.51;49.01
7264;BME280;3673;52.480;13.348;2023-11-22T04:09:40;102387.91;;;5.34;49.29
7264;BME280;3673;52.480;13.348;2023-11-22T04:12:08;102388.28;;;5.42;49.28
7264;BME280;3673;52.480;13.348;2023-11-22T04:14:35;102387.72;;;5.30;49.75
7264;BME280;3673;52.480;13.348;2023-11-22T04:17:02;102382.72;;;5.34;49.41
7264;BME280;3673;52.480;13.348;2023-11-22T04:19:29;102378.53;;;5.36;48.87
7264;BME280;3673;52.480;13.348;2023-11-22T04:21:57;102390.56;;;5.53;49.01
7264;BME280;3673;52.480;13.348;2023-11-22T04:24:24;102384.75;;;5.40;49.72
7264;BME280;3673;52.480;13.348;2023-11-22T04:26:51;102390.81;;;5.40;49.74
7264;BME280;3673;52.480;13.348;2023-11-22T04:29:18;102377.16;;;5.44;49.53
7264;BME280;3673;52.480;13.348;2023-11-22T04:31:44;102371.16;;;5.08;50.31
7264;BME280;3673;52.480;13.348;2023-11-22T04:34:11;102388.22;;;5.40;49.69
7264;BME280;3673;52.480;13.348;2023-11-22T04:36:38;102401.41;;;5.45;49.47
7264;BME280;3673;52.480;13.348;2023-11-22T04:39:06;102401.59;;;5.30;49.77
7264;BME280;3673;52.480;13.348;2023-11-22T04:41:33;102407.81;;;5.34;49.78
7264;BME280;3673;52.480;13.348;2023-11-22T04:44:00;102404.13;;;5.48;49.24
7264;BME280;3673;52.480;13.348;2023-11-22T04:46:27;102405.00;;;5.29;49.63
7264;BME280;3673;52.480;13.348;2023-11-22T04:48:54;102416.78;;;5.23;49.50
7264;BME280;3673;52.480;13.348;2023-11-22T04:51:20;102432.88;;;5.33;49.12
7264;BME280;3673;52.480;13.348;2023-11-22T04:53:48;102438.97;;;5.34;49.23
7264;BME280;3673;52.480;13.348;2023-11-22T04:56:16;102439.34;;;5.24;49.51
7264;BME280;3673;52.480;13.348;2023-11-22T04:58:42;102432.94;;;5.35;48.48
7264;BME280;3673;52.480;13.348;2023-11-22T05:01:09;102447.69;;;5.18;48.55
7264;BME280;3673;52.480;13.348;2023-11-22T05:03:36;102460.09;;;5.24;48.56
7264;BME280;3673;52.480;13.348;2023-11-22T05:06:03;102463.97;;;5.51;47.76
7264;BME280;3673;52.480;13.348;2023-11-22T05:08:30;102456.91;;;5.29;47.91
7264;BME280;3673;52.480;13.348;2023-11-22T05:10:57;102456.59;;;5.23;47.89
7264;BME280;3673;52.480;13.348;2023-11-22T05:13:25;102456.94;;;5.31;48.10
7264;BME280;3673;52.480;13.348;2023-11-22T05:15:52;102462.94;;;5.47;47.58
7264;BME280;3673;52.480;13.348;2023-11-22T05:18:19;102465.34;;;5.25;47.94
7264;BME280;3673;52.480;13.348;2023-11-22T05:20:47;102484.53;;;5.29;47.91
7264;BME280;3673;52.480;13.348;2023-11-22T05:23:14;102477.22;;;5.20;47.90
7264;BME280;3673;52.480;13.348;2023-11-22T05:25:41;102471.56;;;5.46;47.36
7264;BME280;3673;52.480;13.348;2023-11-22T05:28:07;102472.16;;;5.23;47.82
7264;BME280;3673;52.480;13.348;2023-11-22T05:30:35;102473.41;;;5.31;47.84
7264;BME280;3673;52.480;13.348;2023-11-22T05:33:02;102468.47;;;5.36;47.68
7264;BME280;3673;52.480;13.348;2023-11-22T05:35:29;102477.94;;;5.35;47.48
7264;BME280;3673;52.480;13.348;2023-11-22T05:37:56;102490.03;;;5.17;48.08
7264;BME280;3673;52.480;13.348;2023-11-22T05:40:23;102499.56;;;5.00;47.95
7264;BME280;3673;52.480;13.348;2023-11-22T05:42:51;102503.81;;;5.16;47.85
7264;BME280;3673;52.480;13.348;2023-11-22T05:45:17;102519.38;;;5.16;47.75
7264;BME280;3673;52.480;13.348;2023-11-22T05:47:45;102519.75;;;5.06;47.81
7264;BME280;3673;52.480;13.348;2023-11-22T05:50:12;102510.63;;;5.14;47.56
7264;BME280;3673;52.480;13.348;2023-11-22T05:52:39;102507.88;;;5.11;47.09
7264;BME280;3673;52.480;13.348;2023-11-22T05:55:07;102502.16;;;5.00;47.50
7264;BME280;3673;52.480;13.348;2023-11-22T05:57:34;102499.88;;;5.06;47.43
7264;BME280;3673;52.480;13.348;2023-11-22T06:00:00;102499.06;;;5.07;47.22
7264;BME280;3673;52.480;13.348;2023-11-22T06:02:28;102493.56;;;5.01;47.39
7264;BME280;3673;52.480;13.348;2023-11-22T06:04:56;102499.50;;;4.99;47.31
7264;BME280;3673;52.480;13.348;2023-11-22T06:07:22;102501.97;;;5.13;47.13
7264;BME280;3673;52.480;13.348;2023-11-22T06:09:49;102500.72;;;5.23;46.93
7264;BME280;3673;52.480;13.348;2023-11-22T06:12:16;102497.00;;;5.36;46.19
7264;BME280;3673;52.480;13.348;2023-11-22T06:14:42;102495.44;;;5.22;46.54
7264;BME280;3673;52.480;13.348;2023-11-22T06:17:09;102499.38;;;5.13;46.93
7264;BME280;3673;52.480;13.348;2023-11-22T06:19:36;102512.50;;;5.16;46.50
7264;BME280;3673;52.480;13.348;2023-11-22T06:22:04;102506.19;;;5.29;46.71
7264;BME280;3673;52.480;13.348;2023-11-22T06:24:32;102508.03;;;5.14;46.75
7264;BME280;3673;52.480;13.348;2023-11-22T06:27:01;102512.25;;;5.12;46.81
7264;BME280;3673;52.480;13.348;2023-11-22T06:29:28;102503.72;;;5.14;46.84
7264;BME280;3673;52.480;13.348;2023-11-22T06:31:55;102520.69;;;5.08;46.39
7264;BME280;3673;52.480;13.348;2023-11-22T06:34:22;102519.09;;;4.94;46.68
7264;BME280;3673;52.480;13.348;2023-11-22T06:36:49;102539.00;;;4.93;47.13
7264;BME280;3673;52.480;13.348;2023-11-22T06:39:17;102531.88;;;4.89;46.40
7264;BME280;3673;52.480;13.348;2023-11-22T06:41:43;102534.94;;;4.82;47.09
7264;BME280;3673;52.480;13.348;2023-11-22T06:44:10;102545.88;;;4.93;46.66
7264;BME280;3673;52.480;13.348;2023-11-22T06:46:37;102556.31;;;4.94;46.72
7264;BME280;3673;52.480;13.348;2023-11-22T06:49:04;102577.97;;;4.95;46.61
7264;BME280;3673;52.480;13.348;2023-11-22T06:51:31;102586.06;;;4.85;47.21
7264;BME280;3673;52.480;13.348;2023-11-22T06:53:58;102586.97;;;4.85;46.71
7264;BME280;3673;52.480;13.348;2023-11-22T06:56:26;102592.56;;;4.93;46.74
7264;BME280;3673;52.480;13.348;2023-11-22T06:58:53;102609.00;;;4.93;45.93
7264;BME280;3673;52.480;13.348;2023-11-22T07:01:23;102604.72;;;4.78;46.33
7264;BME280;3673;52.480;13.348;2023-11-22T07:03:51;102610.28;;;5.01;46.49
7264;BME280;3673;52.480;13.348;2023-11-22T07:06:18;102614.03;;;4.90;46.61
7264;BME280;3673;52.480;13.348;2023-11-22T07:08:45;102608.13;;;4.60;47.29
7264;BME280;3673;52.480;13.348;2023-11-22T07:11:12;102621.16;;;4.78;46.78
7264;BME280;3673;52.480;13.348;2023-11-22T07:13:40;102623.03;;;4.97;46.91
7264;BME280;3673;52.480;13.348;2023-11-22T07:16:07;102610.53;;;5.06;46.82
7264;BME280;3673;52.480;13.348;2023-11-22T07:18:34;102612.06;;;5.02;46.88
7264;BME280;3673;52.480;13.348;2023-11-22T07:21:01;102611.09;;;5.00;47.16
7264;BME280;3673;52.480;13.348;2023-11-22T07:23:28;102616.53;;;4.89;46.65
7264;BME280;3673;52.480;13.348;2023-11-22T07:25:55;102619.13;;;4.89;46.64
7264;BME280;3673;52.480;13.348;2023-11-22T07:28:22;102617.94;;;4.82;47.29
7264;BME280;3673;52.480;13.348;2023-11-22T07:30:51;102614.97;;;5.08;47.16
7264;BME280;3673;52.480;13.348;2023-11-22T07:33:18;102627.00;;;4.90;46.37
7264;BME280;3673;52.480;13.348;2023-11-22T07:35:46;102616.41;;;5.19;45.87
7264;BME280;3673;52.480;13.348;2023-11-22T07:38:13;102629.75;;;5.09;46.21
7264;BME280;3673;52.480;13.348;2023-11-22T07:40:39;102640.28;;;5.12;45.80
7264;BME280;3673;52.480;13.348;2023-11-22T07:43:07;102640.84;;;5.07;45.43
7264;BME280;3673;52.480;13.348;2023-11-22T07:45:34;102639.63;;;5.16;45.72
7264;BME280;3673;52.480;13.348;2023-11-22T07:48:04;102629.34;;;5.36;45.51
7264;BME280;3673;52.480;13.348;2023-11-22T07:50:31;102632.44;;;5.29;45.26
7264;BME280;3673;52.480;13.348;2023-11-22T07:52:58;102615.88;;;5.43;44.63
7264;BME280;3673;52.480;13.348;2023-11-22T07:55:25;102610.09;;;5.48;44.79
7264;BME280;3673;52.480;13.348;2023-11-22T07:57:52;102605.78;;;5.49;44.88
7264;BME280;3673;52.480;13.348;2023-11-22T08:00:21;102603.38;;;5.69;44.66
7264;BME280;3673;52.480;13.348;2023-11-22T08:02:48;102595.34;;;5.65;44.21
7264;BME280;3673;52.480;13.348;2023-11-22T08:05:16;102575.16;;;5.59;44.51
7264;BME280;3673;52.480;13.348;2023-11-22T08:07:43;102587.63;;;5.49;44.21
7264;BME280;3673;52.480;13.348;2023-11-22T08:10:11;102587.97;;;5.74;44.64
7264;BME280;3673;52.480;13.348;2023-11-22T08:12:45;102581.97;;;5.57;44.55
7264;BME280;3673;52.480;13.348;2023-11-22T08:15:13;102582.50;;;5.33;44.71
7264;BME280;3673;52.480;13.348;2023-11-22T08:17:41;102591.44;;;5.22;44.87
7264;BME280;3673;52.480;13.348;2023-11-22T08:20:09;102595.66;;;5.37;44.97
7264;BME280;3673;52.480;13.348;2023-11-22T08:22:40;102606.03;;;5.53;45.03
7264;BME280;3673;52.480;13.348;2023-11-22T08:25:08;102596.00;;;5.43;45.21
7264;BME280;3673;52.480;13.348;2023-11-22T08:27:38;102606.31;;;5.59;47.85
7264;BME280;3673;52.480;13.348;2023-11-22T08:30:07;102608.81;;;5.58;45.90
7264;BME280;3673;52.480;13.348;2023-11-22T08:32:40;102604.63;;;5.60;45.31
7264;BME280;3673;52.480;13.348;2023-11-22T08:35:08;102616.88;;;5.80;44.96
7264;BME280;3673;52.480;13.348;2023-11-22T08:37:39;102609.78;;;5.78;43.59
7264;BME280;3673;52.480;13.348;2023-11-22T08:40:10;102611.56;;;5.61;43.30
7264;BME280;3673;52.480;13.348;2023-11-22T08:42:39;102611.72;;;5.64;43.35
7264;BME280;3673;52.480;13.348;2023-11-22T08:45:08;102601.78;;;5.55;43.31
7264;BME280;3673;52.480;13.348;2023-11-22T08:47:37;102595.84;;;5.76;42.70
7264;BME280;3673;52.480;13.348;2023-11-22T08:50:06;102600.97;;;5.74;42.81
7264;BME280;3673;52.480;13.348;2023-11-22T08:52:33;102621.81;;;5.76;43.19
7264;BME280;3673;52.480;13.348;2023-11-22T08:55:03;102614.41;;;5.83;42.92
7264;BME280;3673;52.480;13.348;2023-11-22T08:57:31;102620.06;;;5.92;42.46
7264;BME280;3673;52.480;13.348;2023-11-22T08:59:57;102635.31;;;5.68;42.99
7264;BME280;3673;52.480;13.348;2023-11-22T09:02:27;102634.81;;;5.76;42.69
7264;BME280;3673;52.480;13.348;2023-11-22T09:04:53;102625.75;;;5.67;43.23
7264;BME280;3673;52.480;13.348;2023-11-22T09:07:20;102649.75;;;5.80;42.50
7264;BME280;3673;52.480;13.348;2023-11-22T09:09:49;102648.44;;;5.54;43.14
7264;BME280;3673;52.480;13.348;2023-11-22T09:12:17;102636.72;;;5.62;42.56
7264;BME280;3673;52.480;13.348;2023-11-22T09:14:46;102630.22;;;5.70;42.74
7264;BME280;3673;52.480;13.348;2023-11-22T09:17:13;102620.34;;;5.63;42.89
7264;BME280;3673;52.480;13.348;2023-11-22T09:19:40;102621.63;;;6.06;42.35
7264;BME280;3673;52.480;13.348;2023-11-22T09:22:07;102617.47;;;5.92;43.13
7264;BME280;3673;52.480;13.348;2023-11-22T09:24:34;102617.41;;;6.28;42.32
7264;BME280;3673;52.480;13.348;2023-11-22T09:27:03;102613.06;;;6.27;41.56
7264;BME280;3673;52.480;13.348;2023-11-22T09:29:31;102603.41;;;6.24;41.74
7264;BME280;3673;52.480;13.348;2023-11-22T09:32:00;102600.00;;;6.25;41.14
7264;BME280;3673;52.480;13.348;2023-11-22T09:34:27;102599.94;;;6.43;40.72
7264;BME280;3673;52.480;13.348;2023-11-22T09:36:55;102593.09;;;6.26;41.08
7264;BME280;3673;52.480;13.348;2023-11-22T09:39:21;102596.75;;;6.31;41.65
7264;BME280;3673;52.480;13.348;2023-11-22T09:41:51;102591.25;;;6.42;41.48
7264;BME280;3673;52.480;13.348;2023-11-22T09:44:18;102583.25;;;6.38;41.41
7264;BME280;3673;52.480;13.348;2023-11-22T09:46:48;102578.56;;;6.31;41.55
7264;BME280;3673;52.480;13.348;2023-11-22T09:49:22;102574.84;;;6.43;41.16
7264;BME280;3673;52.480;13.348;2023-11-22T09:51:51;102577.47;;;6.06;41.11
7264;BME280;3673;52.480;13.348;2023-11-22T09:54:22;102575.53;;;6.02;41.29
7264;BME280;3673;52.480;13.348;2023-11-22T09:56:58;102571.09;;;6.37;40.71
7264;BME280;3673;52.480;13.348;2023-11-22T09:59:27;102578.16;;;6.41;40.41
7264;BME280;3673;52.480;13.348;2023-11-22T10:01:55;102602.69;;;6.46;45.74
7264;BME280;3673;52.480;13.348;2023-11-22T10:04:26;102607.63;;;6.59;40.59
7264;BME280;3673;52.480;13.348;2023-11-22T10:06:56;102613.22;;;6.49;40.48
7264;BME280;3673;52.480;13.348;2023-11-22T10:09:24;102615.94;;;6.33;40.33
7264;BME280;3673;52.480;13.348;2023-11-22T10:11:52;102625.13;;;6.44;40.38
7264;BME280;3673;52.480;13.348;2023-11-22T10:14:23;102616.78;;;6.51;39.95
7264;BME280;3673;52.480;13.348;2023-11-22T10:16:59;102617.47;;;6.66;39.89
7264;BME280;3673;52.480;13.348;2023-11-22T10:19:28;102614.94;;;6.67;39.65
7264;BME280;3673;52.480;13.348;2023-11-22T10:22:07;102616.09;;;6.55;39.82
7264;BME280;3673;52.480;13.348;2023-11-22T10:24:34;102623.47;;;6.84;39.43
7264;BME280;3673;52.480;13.348;2023-11-22T10:27:01;102617.00;;;6.74;39.49
7264;BME280;3673;52.480;13.348;2023-11-22T10:29:29;102630.59;;;6.88;39.13
7264;BME280;3673;52.480;13.348;2023-11-22T10:31:56;102622.19;;;6.36;39.31
7264;BME280;3673;52.480;13.348;2023-11-22T10:34:26;102621.69;;;6.45;39.39
7264;BME280;3673;52.480;13.348;2023-11-22T10:36:55;102633.78;;;6.44;39.24
7264;BME280;3673;52.480;13.348;2023-11-22T10:39:22;102619.13;;;6.83;39.14
7264;BME280;3673;52.480;13.348;2023-11-22T10:41:51;102623.63;;;6.87;39.24
7264;BME280;3673;52.480;13.348;2023-11-22T10:44:20;102612.06;;;6.61;39.21
7264;BME280;3673;52.480;13.348;2023-11-22T10:46:47;102610.31;;;6.60;40.38
7264;BME280;3673;52.480;13.348;2023-11-22T10:49:16;102616.09;;;6.93;41.89
7264;BME280;3673;52.480;13.348;2023-11-22T10:51:49;102619.72;;;6.78;40.38
7264;BME280;3673;52.480;13.348;2023-11-22T10:54:19;102629.13;;;6.93;40.97
7264;BME280;3673;52.480;13.348;2023-11-22T10:56:46;102629.41;;;7.41;43.12
7264;BME280;3673;52.480;13.348;2023-11-22T10:59:20;102634.03;;;7.46;42.26
7264;BME280;3673;52.480;13.348;2023-11-22T11:01:50;102633.09;;;7.25;38.93
7264;BME280;3673;52.480;13.348;2023-11-22T11:04:23;102625.50;;;6.90;39.11
7264;BME280;3673;52.480;13.348;2023-11-22T11:06:55;102628.78;;;6.86;38.72
7264;BME280;3673;52.480;13.348;2023-11-22T11:09:22;102629.56;;;7.23;38.53
7264;BME280;3673;52.480;13.348;2023-11-22T11:11:55;102620.97;;;7.25;37.73
7264;BME280;3673;52.480;13.348;2023-11-22T11:14:24;102617.47;;;7.25;37.52
7264;BME280;3673;52.480;13.348;2023-11-22T11:16:51;102611.72;;;7.32;38.07
7264;BME280;3673;52.480;13.348;2023-11-22T11:19:20;102603.53;;;7.44;36.78
7264;BME280;3673;52.480;13.348;2023-11-22T11:21:48;102613.63;;;7.36;37.67
7264;BME280;3673;52.480;13.348;2023-11-22T11:24:17;102610.72;;;7.49;44.26
7264;BME280;3673;52.480;13.348;2023-11-22T11:26:48;102603.22;;;7.57;37.62
7264;BME280;3673;52.480;13.348;2023-11-22T11:29:30;102600.31;;;7.09;37.37
7264;BME280;3673;52.480;13.348;2023-11-22T11:31:57;102602.56;;;7.42;37.69
7264;BME280;3673;52.480;13.348;2023-11-22T11:34:24;102605.28;;;7.03;38.56
7264;BME280;3673;52.480;13.348;2023-11-22T11:36:53;102595.41;;;6.96;38.96
7264;BME280;3673;52.480;13.348;2023-11-22T11:39:26;102568.09;;;7.27;39.21
7264;BME280;3673;52.480;13.348;2023-11-22T11:42:09;102556.84;;;7.07;39.27
7264;BME280;3673;52.480;13.348;2023-11-22T11:44:36;102570.41;;;7.20;38.80
7264;BME280;3673;52.480;13.348;2023-11-22T11:47:09;102565.22;;;7.20;38.69
7264;BME280;3673;52.480;13.348;2023-11-22T11:49:37;102561.19;;;7.27;39.22
7264;BME280;3673;52.480;13.348;2023-11-22T11:52:05;102540.41;;;7.49;39.28
7264;BME280;3673;52.480;13.348;2023-11-22T11:54:34;102529.22;;;7.74;38.17
7264;BME280;3673;52.480;13.348;2023-11-22T11:57:01;102527.34;;;7.70;38.01
7264;BME280;3673;52.480;13.348;2023-11-22T11:59:28;102529.75;;;7.88;37.81
7264;BME280;3673;52.480;13.348;2023-11-22T12:01:59;102522.28;;;7.74;37.87
7264;BME280;3673;52.480;13.348;2023-11-22T12:04:26;102524.00;;;7.74;nan
7264;BME280;3673;52.480;13.348;2023-11-22T12:06:53;102525.38;;;8.09;37.03
7264;BME280;3673;52.480;13.348;2023-11-22T12:09:23;102511.72;;;7.70;37.31
7264;BME280;3673;52.480;13.348;2023-11-22T12:11:52;102507.94;;;8.08;36.85
7264;BME280;3673;52.480;13.348;2023-11-22T12:14:19;102502.25;;;7.51;38.03
7264;BME280;3673;52.480;13.348;2023-11-22T12:16:46;102482.69;;;7.83;37.03
7264;BME280;3673;52.480;13.348;2023-11-22T12:19:21;102483.66;;;7.63;38.00
7264;BME280;3673;52.480;13.348;2023-11-22T12:21:48;102470.50;;;7.60;37.97
7264;BME280;3673;52.480;13.348;2023-11-22T12:24:15;102457.38;;;7.57;38.32
7264;BME280;3673;52.480;13.348;2023-11-22T12:26:45;102455.66;;;7.81;37.46
7264;BME280;3673;52.480;13.348;2023-11-22T12:29:13;102466.72;;;7.31;38.68
7264;BME280;3673;52.480;13.348;2023-11-22T12:31:45;102442.56;;;7.56;37.98
7264;BME280;3673;52.480;13.348;2023-11-22T12:34:14;102440.06;;;7.59;37.71
7264;BME280;3673;52.480;13.348;2023-11-22T12:36:42;102448.22;;;7.90;37.37
7264;BME280;3673;52.480;13.348;2023-11-22T12:39:09;102452.75;;;7.96;37.50
7264;BME280;3673;52.480;13.348;2023-11-22T12:41:43;102450.16;;;7.96;37.27
7264;BME280;3673;52.480;13.348;2023-11-22T12:44:12;102460.41;;;7.24;38.77
7264;BME280;3673;52.480;13.348;2023-11-22T12:46:51;102470.00;;;7.05;39.04
7264;BME280;3673;52.480;13.348;2023-11-22T12:49:22;102492.47;;;7.66;37.80
7264;BME280;3673;52.480;13.348;2023-11-22T12:51:51;102496.84;;;7.90;37.59
7264;BME280;3673;52.480;13.348;2023-11-22T12:54:18;102490.66;;;7.88;37.54
7264;BME280;3673;52.480;13.348;2023-11-22T12:56:48;102504.78;;;7.93;37.81
7264;BME280;3673;52.480;13.348;2023-11-22T12:59:24;102528.19;;;8.15;36.88
7264;BME280;3673;52.480;13.348;2023-11-22T13:01:53;102540.47;;;8.17;36.98
7264;BME280;3673;52.480;13.348;2023-11-22T13:04:21;102544.16;;;8.00;36.71
7264;BME280;3673;52.480;13.348;2023-11-22T13:06:48;102549.25;;;7.75;37.10
7264;BME280;3673;52.480;13.348;2023-11-22T13:09:14;102534.94;;;7.43;37.15
7264;BME280;3673;52.480;13.348;2023-11-22T13:11:42;102521.94;;;7.88;36.84
7264;BME280;3673;52.480;13.348;2023-11-22T13:14:09;102525.31;;;7.85;36.81